createdAt,value
2022-09-01T00:02:43.127Z,16.46
2022-09-01T00:05:46.243Z,16.48
2022-09-01T00:08:52.445Z,16.47
2022-09-01T00:11:55.193Z,16.47
2022-09-01T00:14:58.547Z,16.44
2022-09-01T00:18:00.251Z,16.42
2022-09-01T00:21:02.313Z,16.43
2022-09-01T00:24:04.307Z,16.44
2022-09-01T00:27:06.061Z,16.41
2022-09-01T00:30:08.410Z,16.42
2022-09-01T00:33:10.225Z,16.42
2022-09-01T00:36:12.289Z,16.42
2022-09-01T00:39:14.557Z,16.42
2022-09-01T00:42:16.232Z,16.40
2022-09-01T00:45:20.257Z,16.39
2022-09-01T00:49:20.231Z,16.40
2022-09-01T00:52:27.908Z,16.40
2022-09-01T00:55:32.995Z,16.38
2022-09-01T00:58:36.282Z,16.37
2022-09-01T01:01:38.483Z,16.38
2022-09-01T01:04:43.779Z,16.35
2022-09-01T01:07:47.678Z,16.36
2022-09-01T01:10:49.615Z,16.36
2022-09-01T01:13:51.296Z,16.37
2022-09-01T01:16:55.406Z,16.36
2022-09-01T01:20:16.971Z,16.35
2022-09-01T01:23:29.692Z,16.36
2022-09-01T01:26:31.384Z,16.36
2022-09-01T01:29:37.162Z,16.36
2022-09-01T01:32:43.282Z,16.35
2022-09-01T01:35:45.521Z,16.32
2022-09-01T01:38:49.572Z,16.30
2022-09-01T01:41:53.785Z,16.30
2022-09-01T01:44:58.426Z,16.25
2022-09-01T01:48:08.682Z,16.23
2022-09-01T01:51:11.999Z,16.22
2022-09-01T01:54:15.769Z,16.17
2022-09-01T01:57:17.976Z,16.13
2022-09-01T02:00:30.571Z,16.13
2022-09-01T02:03:38.551Z,16.12
2022-09-01T02:06:42.806Z,16.11
2022-09-01T02:09:48.109Z,16.09
2022-09-01T02:12:53.780Z,16.09
2022-09-01T02:15:59.486Z,16.07
2022-09-01T02:19:02.637Z,16.07
2022-09-01T02:22:04.548Z,16.06
2022-09-01T02:25:06.556Z,16.05
2022-09-01T02:28:10.164Z,16.01
2022-09-01T02:31:13.161Z,16.00
2022-09-01T02:34:16.267Z,16.00
2022-09-01T02:37:17.921Z,15.96
2022-09-01T02:40:19.647Z,15.96
2022-09-01T02:43:22.729Z,15.95
2022-09-01T02:46:24.964Z,15.92
2022-09-01T02:49:31.430Z,15.95
2022-09-01T02:52:37.568Z,15.94
2022-09-01T02:55:40.325Z,15.96
2022-09-01T02:58:46.967Z,15.95
2022-09-01T03:01:50.870Z,15.93
2022-09-01T03:04:55.576Z,15.90
2022-09-01T03:08:04.706Z,15.90
2022-09-01T03:11:13.049Z,15.86
2022-09-01T03:14:15.726Z,15.85
2022-09-01T03:17:17.546Z,15.85
2022-09-01T03:20:21.581Z,15.83
2022-09-01T03:23:25.565Z,15.86
2022-09-01T03:26:27.354Z,15.87
2022-09-01T03:29:30.060Z,15.85
2022-09-01T03:32:32.499Z,15.86
2022-09-01T03:35:34.422Z,15.86
2022-09-01T03:38:36.636Z,15.82
2022-09-01T03:41:46.213Z,15.78
2022-09-01T03:49:36.451Z,15.73
2022-09-01T03:52:41.202Z,15.72
2022-09-01T03:55:45.703Z,15.67
2022-09-01T03:58:49.235Z,15.67
2022-09-01T04:01:52.476Z,15.66
2022-09-01T04:04:54.836Z,15.66
2022-09-01T04:07:58.525Z,15.67
2022-09-01T04:11:10.238Z,15.63
2022-09-01T04:14:13.163Z,15.62
2022-09-01T04:25:41.140Z,15.58
2022-09-01T04:28:51.017Z,15.59
2022-09-01T04:32:02.633Z,15.57
2022-09-01T04:35:07.724Z,15.56
2022-09-01T04:38:09.634Z,15.55
2022-09-01T04:41:17.535Z,15.53
2022-09-01T04:44:19.633Z,15.55
2022-09-01T04:51:56.952Z,15.53
2022-09-01T04:54:59.553Z,15.57
2022-09-01T04:58:01.791Z,15.56
2022-09-01T05:01:17.276Z,15.56
2022-09-01T05:04:22.797Z,15.56
2022-09-01T05:07:24.576Z,15.56
2022-09-01T05:10:30.009Z,15.54
2022-09-01T05:13:58.263Z,15.55
2022-09-01T05:17:00.652Z,15.53
2022-09-01T05:20:03.695Z,15.52
2022-09-01T05:23:05.430Z,15.53
2022-09-01T05:26:16.947Z,15.55
2022-09-01T05:29:21.078Z,15.57
2022-09-01T05:32:26.035Z,15.54
2022-09-01T05:35:33.053Z,15.55
2022-09-01T05:38:35.496Z,15.56
2022-09-01T05:41:37.982Z,15.57
2022-09-01T05:44:44.994Z,15.60
2022-09-01T05:47:50.308Z,15.58
2022-09-01T05:50:56.224Z,15.61
2022-09-01T05:53:59.285Z,15.63
2022-09-01T05:57:23.241Z,15.66
2022-09-01T06:00:25.942Z,15.72
2022-09-01T06:03:28.815Z,15.74
2022-09-01T06:07:06.464Z,15.75
2022-09-01T06:10:09.801Z,15.78
2022-09-01T06:13:15.948Z,15.79
2022-09-01T06:16:19.726Z,15.81
2022-09-01T06:19:21.603Z,15.87
2022-09-01T06:22:25.685Z,15.88
2022-09-01T06:25:30.541Z,15.90
2022-09-01T06:28:32.515Z,15.92
2022-09-01T06:31:39.223Z,15.92
2022-09-01T06:34:44.641Z,15.94
2022-09-01T06:37:48.557Z,15.95
2022-09-01T06:41:12.907Z,15.94
2022-09-01T06:44:14.791Z,15.91
2022-09-01T06:47:24.314Z,15.93
2022-09-01T06:53:56.505Z,16.03
2022-09-01T06:58:03.288Z,16.02
2022-09-01T07:00:26.699Z,16.09
2022-09-01T07:03:28.645Z,16.09
2022-09-01T07:07:01.801Z,16.10
2022-09-01T07:17:35.702Z,16.23
2022-09-01T07:21:02.725Z,16.31
2022-09-01T07:24:08.624Z,16.41
2022-09-01T07:28:00.554Z,16.48
2022-09-01T07:34:46.132Z,16.56
2022-09-01T07:42:55.723Z,16.57
2022-09-01T07:48:36.478Z,16.66
2022-09-01T07:51:56.949Z,16.67
2022-09-01T07:55:02.897Z,16.70
2022-09-01T07:58:05.122Z,16.72
2022-09-01T08:01:13.366Z,16.75
2022-09-01T08:04:16.703Z,16.74
2022-09-01T08:07:18.360Z,16.74
2022-09-01T08:10:21.330Z,16.80
2022-09-01T08:13:24.491Z,16.82
2022-09-01T08:16:27.942Z,16.88
2022-09-01T08:19:44.038Z,16.88
2022-09-01T08:22:48.162Z,16.89
2022-09-01T08:26:05.701Z,16.91
2022-09-01T08:29:07.941Z,16.92
2022-09-01T08:32:16.848Z,16.94
2022-09-01T08:35:19.969Z,16.95
2022-09-01T08:38:21.900Z,16.96
2022-09-01T08:41:59.681Z,16.99
2022-09-01T08:45:21.061Z,16.99
2022-09-01T08:52:06.079Z,16.97
2022-09-01T08:55:18.040Z,16.91
2022-09-01T08:58:19.870Z,16.88
2022-09-01T09:01:55.406Z,16.91
2022-09-01T09:05:24.668Z,16.94
2022-09-01T09:08:51.413Z,16.96
2022-09-01T09:12:34.786Z,17.07
2022-09-01T09:15:44.953Z,17.18
2022-09-01T09:18:55.844Z,17.26
2022-09-01T09:22:00.902Z,17.39
2022-09-01T09:25:09.211Z,17.49
2022-09-01T09:28:10.830Z,17.60
2022-09-01T09:31:28.473Z,17.70
2022-09-01T09:34:39.650Z,17.81
2022-09-01T09:37:41.236Z,17.90
2022-09-01T09:41:27.032Z,18.04
2022-09-01T09:44:32.893Z,18.16
2022-09-01T09:47:46.303Z,18.25
2022-09-01T09:50:47.953Z,18.33
2022-09-01T09:53:51.735Z,18.42
2022-09-01T09:57:08.304Z,18.47
2022-09-01T10:00:20.696Z,18.54
2022-09-01T10:03:36.365Z,18.54
2022-09-01T10:06:46.804Z,18.58
2022-09-01T10:09:49.784Z,18.61
2022-09-01T10:12:55.664Z,18.69
2022-09-01T10:16:02.019Z,18.72
2022-09-01T10:19:12.577Z,18.77
2022-09-01T10:22:15.146Z,18.80
2022-09-01T10:25:20.908Z,18.83
2022-09-01T10:28:24.688Z,18.86
2022-09-01T10:31:32.159Z,18.92
2022-09-01T10:34:37.490Z,18.99
2022-09-01T10:37:41.415Z,19.01
2022-09-01T10:40:50.668Z,19.10
2022-09-01T10:43:52.545Z,19.15
2022-09-01T10:46:59.954Z,19.24
2022-09-01T10:50:26.256Z,19.36
2022-09-01T10:53:33.955Z,19.47
2022-09-01T10:56:50.741Z,19.53
2022-09-01T10:59:56.792Z,19.59
2022-09-01T11:06:42.210Z,19.76
2022-09-01T11:09:57.502Z,19.78
2022-09-01T11:13:19.925Z,19.83
2022-09-01T11:20:11.188Z,19.93
2022-09-01T11:23:25.001Z,19.97
2022-09-01T11:26:32.829Z,19.98
2022-09-01T11:29:57.193Z,20.07
2022-09-01T11:33:11.958Z,20.17
2022-09-01T11:36:55.593Z,20.23
2022-09-01T11:40:02.468Z,20.29
2022-09-01T11:43:12.632Z,20.33
2022-09-01T11:46:24.578Z,20.36
2022-09-01T11:49:46.733Z,20.37
2022-09-01T11:53:04.748Z,20.36
2022-09-01T11:56:25.507Z,20.43
2022-09-01T11:59:35.113Z,20.52
2022-09-01T12:02:47.225Z,20.62
2022-09-01T12:05:59.287Z,20.76
2022-09-01T12:09:05.085Z,20.85
2022-09-01T12:12:28.264Z,20.91
2022-09-01T12:15:30.777Z,20.91
2022-09-01T12:18:53.442Z,20.86
2022-09-01T12:22:17.033Z,20.84
2022-09-01T12:25:20.819Z,20.88
2022-09-01T12:28:30.441Z,20.92
2022-09-01T12:31:32.896Z,20.96
2022-09-01T12:34:39.675Z,21.02
2022-09-01T12:37:41.294Z,21.05
2022-09-01T12:40:42.936Z,21.07
2022-09-01T12:43:45.567Z,21.12
2022-09-01T12:46:47.464Z,21.16
2022-09-01T12:49:52.057Z,21.26
2022-09-01T12:52:59.021Z,21.33
2022-09-01T12:56:04.823Z,21.37
2022-09-01T12:59:17.235Z,21.34
2022-09-01T13:02:35.077Z,21.32
2022-09-01T13:05:42.637Z,21.23
2022-09-01T13:08:44.470Z,21.13
2022-09-01T13:12:06.643Z,21.11
2022-09-01T13:15:10.353Z,21.10
2022-09-01T13:18:12.483Z,21.08
2022-09-01T13:21:15.154Z,21.02
2022-09-01T13:24:17.891Z,20.99
2022-09-01T13:27:21.065Z,21.00
2022-09-01T13:30:28.307Z,20.94
2022-09-01T13:34:08.659Z,20.92
2022-09-01T13:36:52.923Z,20.93
2022-09-01T13:39:54.765Z,20.95
2022-09-01T13:42:56.393Z,20.96
2022-09-01T13:45:59.041Z,20.96
2022-09-01T13:49:04.331Z,20.98
2022-09-01T13:52:06.687Z,21.00
2022-09-01T13:55:11.237Z,20.98
2022-09-01T13:58:14.193Z,20.97
2022-09-01T14:01:16.448Z,20.94
2022-09-01T14:04:19.990Z,20.98
2022-09-01T14:07:22.005Z,21.07
2022-09-01T14:10:24.733Z,21.18
2022-09-01T14:13:27.398Z,21.37
2022-09-01T14:16:29.303Z,21.57
2022-09-01T14:19:31.304Z,21.72
2022-09-01T14:22:38.298Z,21.89
2022-09-01T14:25:46.888Z,22.13
2022-09-01T14:28:48.731Z,22.39
2022-09-01T14:31:50.368Z,22.74
2022-09-01T14:34:52.734Z,23.17
2022-09-01T14:37:55.350Z,23.50
2022-09-01T14:40:57.119Z,23.78
2022-09-01T14:44:03.332Z,24.17
2022-09-01T14:47:05.690Z,24.31
2022-09-01T14:53:11.220Z,24.84
2022-09-01T14:56:13.540Z,24.95
2022-09-01T14:59:15.348Z,24.84
2022-09-01T15:02:16.946Z,24.67
2022-09-01T15:05:19.086Z,24.63
2022-09-01T15:08:22.018Z,24.54
2022-09-01T15:11:23.872Z,24.55
2022-09-01T15:14:25.685Z,24.64
2022-09-01T15:17:28.191Z,24.88
2022-09-01T15:20:45.517Z,25.13
2022-09-01T15:23:48.666Z,25.44
2022-09-01T15:26:50.283Z,25.57
2022-09-01T15:29:51.909Z,25.65
2022-09-01T15:32:55.213Z,25.68
2022-09-01T15:35:56.933Z,25.50
2022-09-01T15:38:59.057Z,25.60
2022-09-01T15:42:02.810Z,25.76
2022-09-01T15:45:08.338Z,25.91
2022-09-01T15:48:10.037Z,26.02
2022-09-01T15:51:29.401Z,26.07
2022-09-01T15:54:36.859Z,26.12
2022-09-01T15:57:38.497Z,26.16
2022-09-01T16:00:42.798Z,26.16
2022-09-01T16:03:45.109Z,26.11
2022-09-01T16:06:47.276Z,26.14
2022-09-01T16:09:48.975Z,26.18
2022-09-01T16:12:51.814Z,26.12
2022-09-01T16:16:22.425Z,25.79
2022-09-01T16:19:28.008Z,25.56
2022-09-01T16:22:46.593Z,25.31
2022-09-01T16:25:49.181Z,25.10
2022-09-01T16:28:55.177Z,24.78
2022-09-01T16:31:56.980Z,24.41
2022-09-01T16:34:59.181Z,24.17
2022-09-01T16:38:20.586Z,23.93
2022-09-01T16:41:50.253Z,23.69
2022-09-01T16:45:01.891Z,23.49
2022-09-01T16:48:28.515Z,23.26
2022-09-01T16:51:55.481Z,23.03
2022-09-01T16:55:13.156Z,22.84
2022-09-01T16:58:24.844Z,22.64
2022-09-01T17:01:52.571Z,22.46
2022-09-01T17:05:03.033Z,22.27
2022-09-01T17:08:19.033Z,22.11
2022-09-01T17:11:39.348Z,21.97
2022-09-01T17:14:47.525Z,21.78
2022-09-01T17:18:22.581Z,21.56
2022-09-01T17:21:36.957Z,21.35
2022-09-01T17:24:50.418Z,21.14
2022-09-01T17:28:38.381Z,20.95
2022-09-01T17:36:31.747Z,20.62
2022-09-01T17:39:59.727Z,20.51
2022-09-01T17:43:18.161Z,20.35
2022-09-01T17:46:41.979Z,20.20
2022-09-01T17:50:19.285Z,20.07
2022-09-01T17:53:20.915Z,19.94
2022-09-01T17:56:57.809Z,19.79
2022-09-01T18:00:17.969Z,19.67
2022-09-01T18:03:35.670Z,19.49
2022-09-01T18:06:49.073Z,19.37
2022-09-01T18:09:54.520Z,19.30
2022-09-01T18:13:02.352Z,19.18
2022-09-01T18:16:12.902Z,19.08
2022-09-01T18:19:20.009Z,18.94
2022-09-01T18:22:25.769Z,18.84
2022-09-01T18:25:40.831Z,18.71
2022-09-01T18:28:43.328Z,18.60
2022-09-01T18:32:03.596Z,18.53
2022-09-01T18:35:47.351Z,18.42
2022-09-01T18:39:01.727Z,18.30
2022-09-01T18:42:34.010Z,18.20
2022-09-01T18:45:47.875Z,18.13
2022-09-01T18:49:21.977Z,18.03
2022-09-01T18:52:34.088Z,17.89
2022-09-01T18:56:05.370Z,17.79
2022-09-01T18:59:32.133Z,17.68
2022-09-01T19:07:40.649Z,17.45
2022-09-01T19:11:06.892Z,17.35
2022-09-01T19:14:20.635Z,17.28
2022-09-01T19:17:35.164Z,17.20
2022-09-01T19:21:04.751Z,17.14
2022-09-01T19:24:10.227Z,17.09
2022-09-01T19:27:15.981Z,17.04
2022-09-01T19:30:17.751Z,16.98
2022-09-01T19:33:27.822Z,16.90
2022-09-01T19:36:50.594Z,16.83
2022-09-01T19:39:54.392Z,16.76
2022-09-01T19:43:05.442Z,16.69
2022-09-01T19:46:17.740Z,16.65
2022-09-01T19:49:50.338Z,16.60
2022-09-01T19:53:04.804Z,16.56
2022-09-01T19:56:09.190Z,16.50
2022-09-01T19:59:30.113Z,16.47
2022-09-01T20:02:37.636Z,16.40
2022-09-01T20:06:00.603Z,16.32
2022-09-01T20:09:18.822Z,16.26
2022-09-01T20:12:40.093Z,16.17
2022-09-01T20:15:53.965Z,16.11
2022-09-01T20:19:14.223Z,16.02
2022-09-01T20:22:36.812Z,15.93
2022-09-01T20:26:03.992Z,15.88
2022-09-01T20:29:26.677Z,15.81
2022-09-01T20:36:56.192Z,15.69
2022-09-01T20:40:07.899Z,15.66
2022-09-01T20:43:25.330Z,15.62
2022-09-01T20:46:28.223Z,15.58
2022-09-01T20:49:32.181Z,15.56
2022-09-01T20:53:09.625Z,15.52
2022-09-01T20:56:42.590Z,15.47
2022-09-01T20:59:52.514Z,15.42
2022-09-01T21:03:03.841Z,15.38
2022-09-01T21:06:41.994Z,15.33
2022-09-01T21:09:52.211Z,15.26
2022-09-01T21:13:20.681Z,15.23
2022-09-01T21:16:49.168Z,15.17
2022-09-01T21:20:12.630Z,15.11
2022-09-01T21:23:20.657Z,15.08
2022-09-01T21:26:22.559Z,15.02
2022-09-01T21:29:43.586Z,14.98
2022-09-01T21:32:45.887Z,14.93
2022-09-01T21:35:47.525Z,14.87
2022-09-01T21:38:49.179Z,14.81
2022-09-01T21:41:50.969Z,14.77
2022-09-01T21:44:55.201Z,14.71
2022-09-01T21:47:56.789Z,14.67
2022-09-01T21:50:58.681Z,14.62
2022-09-01T21:54:00.423Z,14.58
2022-09-01T21:57:02.058Z,14.55
2022-09-01T22:00:17.387Z,14.55
2022-09-01T22:03:20.478Z,14.54
2022-09-01T22:06:23.232Z,14.54
2022-09-01T22:09:24.832Z,14.55
2022-09-01T22:12:26.546Z,14.54
2022-09-01T22:15:28.170Z,14.52
2022-09-01T22:18:31.342Z,14.52
2022-09-01T22:21:33.194Z,14.51
2022-09-01T22:24:34.947Z,14.50
2022-09-01T22:27:36.634Z,14.43
2022-09-01T22:30:44.612Z,14.41
2022-09-01T22:33:46.678Z,14.37
2022-09-01T22:36:49.581Z,14.38
2022-09-01T22:39:51.791Z,14.37
2022-09-01T22:42:53.661Z,14.40
2022-09-01T22:45:56.658Z,14.40
2022-09-01T22:48:59.584Z,14.39
2022-09-01T22:52:01.683Z,14.38
2022-09-01T22:55:05.041Z,14.39
2022-09-01T22:58:07.918Z,14.37
2022-09-01T23:01:14.018Z,14.36
2022-09-01T23:04:16.849Z,14.35
2022-09-01T23:07:18.438Z,14.37
2022-09-01T23:10:21.187Z,14.38
2022-09-01T23:13:22.999Z,14.34
2022-09-01T23:16:26.143Z,14.33
2022-09-01T23:19:27.770Z,14.30
2022-09-01T23:22:29.504Z,14.27
2022-09-01T23:25:31.599Z,14.20
2022-09-01T23:28:33.741Z,14.20
2022-09-01T23:31:38.718Z,14.16
2022-09-01T23:34:40.360Z,14.11
2022-09-01T23:37:42.024Z,14.08
2022-09-01T23:40:45.621Z,14.05
2022-09-01T23:43:47.275Z,14.01
2022-09-01T23:46:49.313Z,13.97
2022-09-01T23:49:50.941Z,13.90
2022-09-01T23:52:52.571Z,13.87
2022-09-01T23:55:58.967Z,13.82
2022-09-01T23:59:01.514Z,13.76
